createdAt,value
2023-01-25T00:00:08.156Z,4.40
2023-01-25T00:02:35.912Z,4.30
2023-01-25T00:05:03.940Z,4.30
2023-01-25T00:07:31.674Z,4.30
2023-01-25T00:09:59.428Z,4.30
2023-01-25T00:12:27.195Z,4.40
2023-01-25T00:14:56.172Z,4.40
2023-01-25T00:17:23.952Z,4.40
2023-01-25T00:19:51.632Z,4.40
2023-01-25T00:22:19.288Z,4.40
2023-01-25T00:24:47.132Z,4.40
2023-01-25T00:27:14.820Z,4.40
2023-01-25T00:29:42.631Z,4.40
2023-01-25T00:32:35.315Z,4.40
2023-01-25T00:35:06.716Z,4.40
2023-01-25T00:37:38.720Z,4.40
2023-01-25T00:40:07.268Z,4.40
2023-01-25T00:42:34.981Z,4.40
2023-01-25T00:45:02.748Z,4.40
2023-01-25T00:47:32.340Z,4.40
2023-01-25T00:50:06.146Z,4.40
2023-01-25T00:52:34.756Z,4.50
2023-01-25T00:55:02.920Z,4.50
2023-01-25T00:57:30.776Z,4.50
2023-01-25T00:59:58.485Z,4.50
2023-01-25T01:02:26.234Z,4.50
2023-01-25T01:04:56.651Z,4.50
2023-01-25T01:07:24.451Z,4.50
2023-01-25T01:09:53.126Z,4.50
2023-01-25T01:12:20.925Z,4.50
2023-01-25T01:14:48.652Z,4.60
2023-01-25T01:17:16.369Z,4.60
2023-01-25T01:19:44.131Z,4.60
2023-01-25T01:22:13.180Z,4.60
2023-01-25T01:24:41.979Z,4.60
2023-01-25T01:27:09.719Z,4.60
2023-01-25T01:29:37.429Z,4.70
2023-01-25T01:32:05.502Z,4.70
2023-01-25T01:34:33.480Z,4.80
2023-01-25T01:37:01.294Z,4.70
2023-01-25T01:39:30.331Z,4.70
2023-01-25T01:41:58.142Z,4.70
2023-01-25T01:44:44.456Z,4.60
2023-01-25T01:47:19.831Z,4.70
2023-01-25T01:49:53.930Z,4.70
2023-01-25T01:52:25.466Z,4.60
2023-01-25T01:55:00.371Z,4.60
2023-01-25T01:57:35.570Z,4.50
2023-01-25T02:00:07.339Z,4.60
2023-01-25T02:02:43.693Z,4.50
2023-01-25T02:05:18.538Z,4.50
2023-01-25T02:07:49.863Z,4.60
2023-01-25T02:10:22.851Z,4.60
2023-01-25T02:12:53.730Z,4.60
2023-01-25T02:15:21.485Z,4.50
2023-01-25T02:17:52.189Z,4.50
2023-01-25T02:20:29.847Z,4.40
2023-01-25T02:23:04.184Z,4.50
2023-01-25T02:25:33.309Z,4.50
2023-01-25T02:28:08.194Z,4.50
2023-01-25T02:30:35.956Z,4.50
2023-01-25T02:33:03.643Z,4.50
2023-01-25T02:35:41.782Z,4.50
2023-01-25T02:38:12.826Z,4.50
2023-01-25T02:40:47.212Z,4.60
2023-01-25T02:43:16.539Z,4.50
2023-01-25T02:45:48.777Z,4.50
2023-01-25T02:48:16.470Z,4.60
2023-01-25T02:50:45.032Z,4.60
2023-01-25T02:53:12.971Z,4.60
2023-01-25T02:55:43.250Z,4.60
2023-01-25T02:58:13.538Z,4.70
2023-01-25T03:00:41.590Z,4.70
2023-01-25T03:03:09.635Z,4.60
2023-01-25T03:05:37.388Z,4.70
2023-01-25T03:08:05.384Z,4.60
2023-01-25T03:10:33.177Z,4.60
2023-01-25T03:13:03.028Z,4.60
2023-01-25T03:15:30.783Z,4.60
2023-01-25T03:17:58.836Z,4.60
2023-01-25T03:20:26.601Z,4.60
2023-01-25T03:22:55.579Z,4.60
2023-01-25T03:25:23.839Z,4.70
2023-01-25T03:27:59.726Z,4.70
2023-01-25T03:30:29.196Z,4.80
2023-01-25T03:32:58.211Z,4.80
2023-01-25T03:35:26.011Z,4.80
2023-01-25T03:37:54.352Z,4.90
2023-01-25T03:40:22.198Z,4.90
2023-01-25T03:42:52.097Z,4.90
2023-01-25T03:45:22.807Z,5.00
2023-01-25T03:47:52.519Z,5.00
2023-01-25T03:50:20.455Z,5.00
2023-01-25T03:52:58.704Z,4.90
2023-01-25T03:55:28.833Z,4.90
2023-01-25T03:57:56.670Z,4.90
2023-01-25T04:00:28.115Z,4.90
2023-01-25T04:03:02.107Z,4.90
2023-01-25T04:05:31.524Z,4.90
2023-01-25T04:07:59.281Z,4.80
2023-01-25T04:10:36.847Z,4.80
2023-01-25T04:13:05.940Z,4.80
2023-01-25T04:15:34.680Z,4.80
2023-01-25T04:18:10.951Z,4.90
2023-01-25T04:20:38.640Z,5.00
2023-01-25T04:23:07.499Z,4.80
2023-01-25T04:25:41.386Z,4.60
2023-01-25T04:28:14.802Z,4.70
2023-01-25T04:30:43.411Z,4.70
2023-01-25T04:33:13.083Z,4.60
2023-01-25T04:35:40.854Z,4.70
2023-01-25T04:38:11.488Z,4.70
2023-01-25T04:40:43.267Z,4.80
2023-01-25T04:43:14.574Z,4.60
2023-01-25T04:45:44.153Z,4.70
2023-01-25T04:48:21.539Z,4.80
2023-01-25T04:50:55.850Z,4.80
2023-01-25T04:53:24.960Z,4.70
2023-01-25T04:55:53.967Z,4.70
2023-01-25T04:58:25.885Z,4.80
2023-01-25T05:00:54.285Z,4.70
2023-01-25T05:03:25.705Z,4.50
2023-01-25T05:05:54.759Z,4.50
2023-01-25T05:08:25.906Z,4.60
2023-01-25T05:10:56.474Z,4.70
2023-01-25T05:13:39.732Z,4.70
2023-01-25T05:16:14.036Z,4.60
2023-01-25T05:18:48.731Z,4.60
2023-01-25T05:21:36.096Z,4.60
2023-01-25T05:24:04.975Z,4.60
2023-01-25T05:26:48.088Z,4.60
2023-01-25T05:29:15.990Z,4.60
2023-01-25T05:31:51.585Z,4.60
2023-01-25T05:34:20.640Z,4.60
2023-01-25T05:36:48.389Z,4.60
2023-01-25T05:39:16.277Z,4.60
2023-01-25T05:41:45.979Z,4.60
2023-01-25T05:44:14.083Z,4.60
2023-01-25T05:46:46.571Z,4.60
2023-01-25T05:49:18.143Z,4.60
2023-01-25T05:51:47.771Z,4.60
2023-01-25T05:54:17.480Z,4.60
2023-01-25T05:56:51.688Z,4.50
2023-01-25T05:59:19.761Z,4.60
2023-01-25T06:01:49.539Z,4.60
2023-01-25T06:04:18.617Z,4.60
2023-01-25T06:06:48.273Z,4.60
2023-01-25T06:09:16.635Z,4.60
2023-01-25T06:11:47.221Z,4.60
2023-01-25T06:14:15.259Z,4.60
2023-01-25T06:16:43.447Z,4.60
2023-01-25T06:19:31.186Z,4.60
2023-01-25T06:22:12.226Z,4.60
2023-01-25T06:24:39.983Z,4.60
2023-01-25T06:27:08.592Z,4.60
2023-01-25T06:29:36.550Z,4.60
2023-01-25T06:32:04.643Z,4.50
2023-01-25T06:34:32.973Z,4.60
2023-01-25T06:37:00.835Z,4.60
2023-01-25T06:39:30.012Z,4.60
2023-01-25T06:41:57.922Z,4.60
2023-01-25T06:44:25.663Z,4.60
2023-01-25T06:46:53.468Z,4.60
2023-01-25T06:49:21.190Z,4.70
2023-01-25T06:51:49.012Z,4.60
2023-01-25T06:54:16.806Z,4.70
2023-01-25T06:56:45.857Z,4.70
2023-01-25T06:59:17.194Z,4.70
2023-01-25T07:01:45.020Z,4.70
2023-01-25T07:04:13.345Z,4.70
2023-01-25T07:06:41.455Z,4.70
2023-01-25T07:09:11.686Z,4.70
2023-01-25T07:11:39.786Z,4.70
2023-01-25T07:14:08.968Z,4.60
2023-01-25T07:16:38.351Z,4.60
2023-01-25T07:19:06.299Z,4.60
2023-01-25T07:21:34.588Z,4.60
2023-01-25T07:24:03.703Z,4.70
2023-01-25T07:26:31.943Z,4.70
2023-01-25T07:29:00.702Z,4.70
2023-01-25T07:31:30.650Z,4.70
2023-01-25T07:33:59.461Z,4.70
2023-01-25T07:36:27.735Z,4.80
2023-01-25T07:38:56.243Z,4.80
2023-01-25T07:41:25.002Z,4.90
2023-01-25T07:43:55.955Z,4.80
2023-01-25T07:46:44.965Z,4.90
2023-01-25T07:49:14.011Z,4.80
2023-01-25T07:51:41.694Z,4.80
2023-01-25T07:54:12.299Z,4.70
2023-01-25T07:56:42.278Z,4.80
2023-01-25T07:59:11.457Z,4.90
2023-01-25T08:01:40.783Z,4.90
2023-01-25T08:04:12.604Z,5.00
2023-01-25T08:06:40.385Z,5.00
2023-01-25T08:09:10.544Z,5.20
2023-01-25T08:11:38.726Z,5.20
2023-01-25T08:14:06.591Z,5.20
2023-01-25T08:16:34.580Z,5.20
2023-01-25T08:19:04.261Z,5.10
2023-01-25T08:21:35.778Z,4.90
2023-01-25T08:24:05.598Z,5.00
2023-01-25T08:26:34.639Z,5.10
2023-01-25T08:29:02.665Z,5.20
2023-01-25T08:31:32.609Z,5.20
2023-01-25T08:34:01.554Z,5.00
2023-01-25T08:36:29.637Z,5.10
2023-01-25T08:39:04.412Z,4.70
2023-01-25T08:41:33.552Z,4.90
2023-01-25T08:44:01.403Z,5.10
2023-01-25T08:46:35.797Z,5.10
2023-01-25T08:49:04.325Z,5.30
2023-01-25T08:51:33.345Z,5.30
2023-01-25T08:54:05.821Z,5.30
2023-01-25T08:56:33.960Z,5.30
2023-01-25T08:59:01.844Z,5.30
2023-01-25T09:01:29.785Z,5.30
2023-01-25T09:03:57.571Z,5.30
2023-01-25T09:06:25.356Z,5.30
2023-01-25T09:08:53.194Z,5.30
2023-01-25T09:11:23.525Z,5.40
2023-01-25T09:13:51.716Z,5.40
2023-01-25T09:16:27.946Z,5.50
2023-01-25T09:18:57.476Z,5.50
2023-01-25T09:21:25.420Z,5.50
2023-01-25T09:24:09.982Z,5.50
2023-01-25T09:26:42.909Z,5.40
2023-01-25T09:29:13.042Z,5.40
2023-01-25T09:31:43.699Z,5.40
2023-01-25T09:34:16.023Z,5.30
2023-01-25T09:36:43.827Z,5.20
2023-01-25T09:39:13.050Z,5.30
2023-01-25T09:42:14.089Z,5.40
2023-01-25T09:45:00.246Z,5.40
2023-01-25T09:47:31.801Z,5.40
2023-01-25T09:50:14.653Z,5.30
2023-01-25T09:53:04.196Z,5.30
2023-01-25T09:55:33.617Z,5.30
2023-01-25T09:58:04.400Z,5.30
2023-01-25T10:00:36.596Z,5.30
2023-01-25T10:03:13.704Z,5.30
2023-01-25T10:05:45.814Z,5.20
2023-01-25T10:08:20.680Z,5.30
2023-01-25T10:10:51.822Z,5.20
2023-01-25T10:13:23.775Z,5.30
2023-01-25T10:15:53.807Z,5.40
2023-01-25T10:18:28.159Z,5.40
2023-01-25T10:20:59.939Z,5.50
2023-01-25T10:23:40.562Z,5.50
2023-01-25T10:26:14.114Z,5.50
2023-01-25T10:28:52.655Z,5.50
2023-01-25T10:31:25.582Z,5.50
2023-01-25T10:33:58.041Z,5.50
2023-01-25T10:36:30.665Z,5.40
2023-01-25T10:39:00.721Z,5.30
2023-01-25T10:41:36.865Z,5.30
2023-01-25T10:44:19.984Z,5.30
2023-01-25T10:46:51.914Z,5.30
2023-01-25T10:49:24.903Z,5.30
2023-01-25T10:51:52.566Z,5.30
2023-01-25T10:54:22.680Z,5.30
2023-01-25T10:56:50.943Z,5.30
2023-01-25T10:59:24.568Z,5.30
2023-01-25T11:01:53.974Z,5.30
2023-01-25T11:04:32.546Z,5.30
2023-01-25T11:07:03.684Z,5.40
2023-01-25T11:09:40.228Z,5.20
2023-01-25T11:12:19.156Z,5.30
2023-01-25T11:14:50.711Z,5.20
2023-01-25T11:17:25.798Z,5.10
2023-01-25T11:20:15.963Z,4.90
2023-01-25T11:22:51.520Z,4.90
2023-01-25T11:25:27.957Z,5.00
2023-01-25T11:28:11.487Z,5.00
2023-01-25T11:30:40.656Z,5.00
2023-01-25T11:33:12.527Z,5.10
2023-01-25T11:36:02.157Z,5.10
2023-01-25T11:38:30.265Z,5.10
2023-01-25T11:41:07.069Z,5.10
2023-01-25T11:43:53.816Z,5.20
2023-01-25T11:46:40.539Z,5.30
2023-01-25T11:49:30.883Z,5.20
2023-01-25T11:52:12.300Z,5.20
2023-01-25T11:54:51.926Z,5.20
2023-01-25T11:57:33.263Z,5.10
2023-01-25T12:00:18.166Z,5.20
2023-01-25T12:03:10.938Z,5.20
2023-01-25T12:05:50.968Z,5.20
2023-01-25T12:08:37.753Z,5.30
2023-01-25T12:11:16.583Z,5.30
2023-01-25T12:13:55.832Z,5.40
2023-01-25T12:16:37.004Z,5.40
2023-01-25T12:19:29.535Z,5.40
2023-01-25T12:22:13.432Z,5.40
2023-01-25T12:24:51.296Z,5.40
2023-01-25T12:27:30.958Z,5.40
2023-01-25T12:30:04.752Z,5.40
2023-01-25T12:32:40.940Z,5.40
2023-01-25T12:35:24.459Z,5.40
2023-01-25T12:37:57.187Z,5.40
2023-01-25T12:40:35.128Z,5.60
2023-01-25T12:43:03.120Z,5.60
2023-01-25T12:45:35.678Z,5.70
2023-01-25T12:48:13.293Z,5.60
2023-01-25T12:50:47.983Z,5.70
2023-01-25T12:53:21.039Z,5.70
2023-01-25T12:55:49.631Z,5.80
2023-01-25T12:58:36.938Z,5.90
2023-01-25T13:01:16.373Z,5.80
2023-01-25T13:04:04.198Z,5.80
2023-01-25T13:06:45.384Z,5.90
2023-01-25T13:09:21.137Z,5.80
2023-01-25T13:11:49.653Z,5.80
2023-01-25T13:14:30.880Z,5.80
2023-01-25T13:17:19.468Z,5.80
2023-01-25T13:19:47.368Z,5.80
2023-01-25T13:22:51.897Z,5.80
2023-01-25T13:25:22.875Z,5.70
2023-01-25T13:27:52.600Z,5.70
2023-01-25T13:30:32.212Z,5.60
2023-01-25T13:33:04.342Z,5.60
2023-01-25T13:35:37.443Z,5.60
2023-01-25T13:38:29.177Z,5.60
2023-01-25T13:41:16.605Z,5.60
2023-01-25T13:43:47.810Z,5.80
2023-01-25T13:46:19.232Z,5.70
2023-01-25T13:48:54.110Z,5.70
2023-01-25T13:51:23.633Z,5.70
2023-01-25T13:54:00.197Z,5.70
2023-01-25T13:56:32.640Z,5.70
2023-01-25T13:59:00.991Z,5.70
2023-01-25T14:01:32.286Z,5.70
2023-01-25T14:04:03.337Z,5.80
2023-01-25T14:06:33.561Z,5.70
2023-01-25T14:09:07.342Z,5.70
2023-01-25T14:11:43.787Z,5.70
2023-01-25T14:14:25.197Z,5.70
2023-01-25T14:17:15.640Z,5.70
2023-01-25T14:19:45.096Z,5.60
2023-01-25T14:22:28.446Z,5.70
2023-01-25T14:25:07.121Z,5.80
2023-01-25T14:27:38.091Z,5.70
2023-01-25T14:30:06.531Z,5.70
2023-01-25T14:32:36.439Z,5.60
2023-01-25T14:35:42.957Z,5.60
2023-01-25T14:38:24.699Z,5.50
2023-01-25T14:40:56.657Z,5.50
2023-01-25T14:43:26.586Z,5.60
2023-01-25T14:45:55.609Z,5.50
2023-01-25T14:48:35.560Z,5.40
2023-01-25T14:51:09.088Z,5.40
2023-01-25T15:01:52.772Z,5.20
2023-01-25T15:04:20.852Z,5.10
2023-01-25T15:06:50.711Z,5.10
2023-01-25T15:09:34.996Z,5.10
2023-01-25T15:12:04.652Z,5.10
2023-01-25T15:14:32.529Z,5.20
2023-01-25T15:17:01.589Z,5.20
2023-01-25T15:19:30.976Z,5.30
2023-01-25T15:22:00.258Z,5.20
2023-01-25T15:24:28.723Z,5.20
2023-01-25T15:26:56.914Z,5.10
2023-01-25T15:29:28.147Z,5.10
2023-01-25T15:31:58.356Z,5.00
2023-01-25T15:34:30.188Z,5.00
2023-01-25T15:36:58.132Z,5.00
2023-01-25T15:39:25.811Z,5.00
2023-01-25T15:41:53.609Z,4.90
2023-01-25T15:44:21.306Z,4.90
2023-01-25T15:46:51.745Z,4.90
2023-01-25T15:49:27.005Z,4.90
2023-01-25T15:51:56.533Z,4.80
2023-01-25T15:54:24.893Z,4.90
2023-01-25T15:57:00.364Z,4.90
2023-01-25T15:59:28.608Z,4.80
2023-01-25T16:01:56.356Z,4.80
2023-01-25T16:04:25.127Z,4.70
2023-01-25T16:06:55.169Z,4.70
2023-01-25T16:09:26.704Z,4.70
2023-01-25T16:11:55.723Z,4.80
2023-01-25T16:14:28.819Z,4.80
2023-01-25T16:16:59.451Z,4.80
2023-01-25T16:19:27.329Z,4.80
2023-01-25T16:21:55.083Z,4.90
2023-01-25T16:24:24.323Z,4.90
2023-01-25T16:26:54.886Z,4.90
2023-01-25T16:29:23.452Z,4.90
2023-01-25T16:31:51.426Z,4.80
2023-01-25T16:34:20.227Z,4.90
2023-01-25T16:36:51.139Z,4.90
2023-01-25T16:39:22.176Z,4.90
2023-01-25T16:41:51.669Z,4.90
2023-01-25T16:44:21.847Z,4.90
2023-01-25T16:46:50.218Z,4.80
2023-01-25T16:49:19.441Z,4.80
2023-01-25T16:51:48.919Z,4.90
2023-01-25T16:54:16.927Z,4.90
2023-01-25T16:56:44.664Z,5.00
2023-01-25T16:59:13.711Z,5.00
2023-01-25T17:01:43.469Z,5.00
2023-01-25T17:04:11.574Z,5.10
2023-01-25T17:06:43.040Z,5.10
2023-01-25T17:09:23.041Z,5.10
2023-01-25T17:11:51.794Z,5.00
2023-01-25T17:14:21.963Z,5.10
2023-01-25T17:16:51.411Z,5.00
2023-01-25T17:19:20.125Z,5.00
2023-01-25T17:21:48.528Z,5.00
2023-01-25T17:24:18.847Z,5.00
2023-01-25T17:26:46.784Z,4.90
2023-01-25T17:29:14.500Z,4.90
2023-01-25T17:31:44.344Z,4.90
2023-01-25T17:34:15.759Z,4.90
2023-01-25T17:36:44.359Z,4.90
2023-01-25T17:39:15.225Z,4.90
2023-01-25T17:41:42.939Z,4.90
2023-01-25T17:44:10.643Z,4.90
2023-01-25T17:46:38.468Z,4.90
2023-01-25T17:49:11.276Z,4.90
2023-01-25T17:51:39.297Z,5.00
2023-01-25T17:54:07.164Z,5.00
2023-01-25T17:56:37.299Z,5.00
2023-01-25T17:59:08.675Z,5.00
2023-01-25T18:01:38.536Z,5.00
2023-01-25T18:04:09.775Z,5.00
2023-01-25T18:06:37.851Z,5.10
2023-01-25T18:09:07.246Z,5.10
2023-01-25T18:11:37.848Z,5.00
2023-01-25T18:14:12.613Z,5.00
2023-01-25T18:16:41.847Z,5.00
2023-01-25T18:19:13.889Z,5.00
2023-01-25T18:21:42.222Z,5.00
2023-01-25T18:24:24.949Z,5.00
2023-01-25T18:26:55.069Z,5.00
2023-01-25T18:29:47.623Z,5.00
2023-01-25T18:32:16.369Z,5.00
2023-01-25T18:34:47.983Z,5.10
2023-01-25T18:37:20.236Z,5.00
2023-01-25T18:39:49.102Z,5.10
2023-01-25T18:42:17.743Z,5.10
2023-01-25T18:44:48.203Z,5.10
2023-01-25T18:47:18.391Z,5.10
2023-01-25T18:49:49.053Z,5.10
2023-01-25T18:52:17.212Z,5.10
2023-01-25T18:54:45.599Z,5.10
2023-01-25T18:57:14.033Z,5.10
2023-01-25T18:59:41.929Z,5.10
2023-01-25T19:02:12.281Z,5.00
2023-01-25T19:04:40.131Z,5.00
2023-01-25T19:07:09.603Z,4.70
2023-01-25T19:09:37.350Z,4.80
2023-01-25T19:12:05.503Z,4.80
2023-01-25T19:14:33.188Z,4.90
2023-01-25T19:17:03.456Z,4.80
2023-01-25T19:19:33.505Z,4.80
2023-01-25T19:22:01.930Z,4.90
2023-01-25T19:24:31.114Z,4.90
2023-01-25T19:26:58.827Z,4.90
2023-01-25T19:29:26.573Z,5.00
2023-01-25T19:31:54.382Z,5.00
2023-01-25T19:34:24.418Z,5.00
2023-01-25T19:36:53.659Z,5.00
2023-01-25T19:39:21.498Z,5.00
2023-01-25T19:41:54.316Z,5.00
2023-01-25T19:44:22.213Z,4.80
2023-01-25T19:46:50.170Z,4.80
2023-01-25T19:49:18.071Z,4.80
2023-01-25T19:51:52.685Z,4.80
2023-01-25T19:54:21.537Z,4.80
2023-01-25T19:56:55.519Z,4.80
2023-01-25T19:59:25.588Z,4.90
2023-01-25T20:01:53.735Z,4.80
2023-01-25T20:04:23.938Z,4.70
2023-01-25T20:06:52.743Z,4.80
2023-01-25T20:09:24.792Z,4.80
2023-01-25T20:11:55.923Z,4.80
2023-01-25T20:14:23.810Z,4.80
2023-01-25T20:16:52.699Z,4.70
2023-01-25T20:19:20.790Z,4.70
2023-01-25T20:21:49.787Z,4.80
2023-01-25T20:24:17.704Z,4.80
2023-01-25T20:26:45.698Z,4.80
2023-01-25T20:29:15.159Z,4.80
2023-01-25T20:31:44.664Z,4.80
2023-01-25T20:34:14.503Z,4.70
2023-01-25T20:36:43.146Z,4.80
2023-01-25T20:39:14.110Z,4.80
2023-01-25T20:41:42.165Z,4.80
2023-01-25T20:44:14.893Z,4.80
2023-01-25T20:46:43.754Z,4.80
2023-01-25T20:49:15.283Z,4.80
2023-01-25T20:51:43.624Z,4.70
2023-01-25T20:54:12.426Z,4.50
2023-01-25T20:56:40.418Z,4.60
2023-01-25T20:59:08.327Z,4.60
2023-01-25T21:01:37.638Z,4.50
2023-01-25T21:04:06.839Z,4.50
2023-01-25T21:06:35.930Z,4.60
2023-01-25T21:09:04.131Z,4.60
2023-01-25T21:11:32.251Z,4.70
2023-01-25T21:14:00.082Z,4.70
2023-01-25T21:16:28.179Z,4.70
2023-01-25T21:18:58.756Z,4.50
2023-01-25T21:21:28.300Z,4.50
2023-01-25T21:23:59.645Z,4.40
2023-01-25T21:26:31.909Z,4.40
2023-01-25T21:29:00.981Z,4.40
2023-01-25T21:31:33.276Z,4.40
2023-01-25T21:34:02.889Z,4.30
2023-01-25T21:36:30.963Z,4.30
2023-01-25T21:38:58.983Z,4.30
2023-01-25T21:41:29.295Z,4.40
2023-01-25T21:44:12.490Z,4.30
2023-01-25T21:46:40.446Z,4.30
2023-01-25T21:49:25.393Z,4.30
2023-01-25T21:51:54.395Z,4.10
2023-01-25T21:54:23.575Z,4.20
2023-01-25T21:56:52.931Z,4.20
2023-01-25T21:59:21.107Z,4.10
2023-01-25T22:01:49.175Z,4.10
2023-01-25T22:04:21.810Z,4.00
2023-01-25T22:06:50.405Z,4.10
2023-01-25T22:09:18.103Z,4.20
2023-01-25T22:11:46.583Z,4.20
2023-01-25T22:14:14.784Z,4.30
2023-01-25T22:16:42.511Z,4.30
2023-01-25T22:19:10.287Z,4.30
2023-01-25T22:21:39.356Z,4.30
2023-01-25T22:24:08.017Z,4.30
2023-01-25T22:26:47.463Z,4.30
2023-01-25T22:29:15.881Z,4.30
2023-01-25T22:31:44.054Z,4.20
2023-01-25T22:34:11.869Z,4.10
2023-01-25T22:36:40.949Z,4.10
2023-01-25T22:39:09.939Z,4.00
2023-01-25T22:41:38.507Z,3.90
2023-01-25T22:44:06.419Z,4.00
2023-01-25T22:46:34.293Z,3.90
2023-01-25T22:49:02.675Z,3.90
2023-01-25T22:51:31.373Z,3.90
2023-01-25T22:54:01.118Z,3.90
2023-01-25T22:56:31.618Z,3.90
2023-01-25T22:59:00.563Z,3.80
2023-01-25T23:01:30.620Z,3.70
2023-01-25T23:04:07.000Z,3.80
2023-01-25T23:06:34.779Z,3.70
2023-01-25T23:09:06.382Z,3.60
2023-01-25T23:11:37.182Z,3.60
2023-01-25T23:14:19.895Z,3.60
2023-01-25T23:16:48.554Z,3.60
2023-01-25T23:19:16.090Z,3.60
2023-01-25T23:21:43.817Z,3.70
2023-01-25T23:24:12.901Z,3.60
2023-01-25T23:26:45.883Z,3.60
2023-01-25T23:29:13.704Z,3.60
2023-01-25T23:31:41.629Z,3.60
2023-01-25T23:34:09.357Z,3.70
2023-01-25T23:36:41.036Z,3.70
2023-01-25T23:39:11.782Z,3.80
2023-01-25T23:41:40.881Z,3.80
2023-01-25T23:44:08.944Z,3.90
2023-01-25T23:46:39.226Z,3.90
2023-01-25T23:49:07.016Z,3.90
2023-01-25T23:51:34.721Z,3.80
2023-01-25T23:54:02.461Z,3.70
2023-01-25T23:56:30.241Z,3.60
2023-01-25T23:58:59.267Z,3.60
